createdAt,value
2023-02-09T00:01:12.359Z,94810.69
2023-02-09T00:02:44.063Z,94810.53
2023-02-09T00:04:15.671Z,94815.16
2023-02-09T00:05:47.273Z,94815.81
2023-02-09T00:07:18.916Z,94818.59
2023-02-09T00:08:50.602Z,94816.13
2023-02-09T00:10:22.124Z,94813.00
2023-02-09T00:12:12.287Z,94820.66
2023-02-09T00:13:44.031Z,94823.81
2023-02-09T00:15:15.544Z,94822.97
2023-02-09T00:16:47.269Z,94815.16
2023-02-09T00:18:19.167Z,94813.53
2023-02-09T00:19:50.652Z,94825.63
2023-02-09T00:21:22.095Z,94819.78
2023-02-09T00:22:53.593Z,94819.97
2023-02-09T00:24:25.316Z,94819.97
2023-02-09T00:25:59.931Z,94813.28
2023-02-09T00:27:32.362Z,94805.59
2023-02-09T00:29:03.885Z,94816.53
2023-02-09T00:30:35.432Z,94814.75
2023-02-09T00:32:06.974Z,94810.66
2023-02-09T00:33:38.582Z,94812.91
2023-02-09T00:35:10.131Z,94809.94
2023-02-09T00:36:41.675Z,94813.34
2023-02-09T00:38:13.555Z,94809.56
2023-02-09T00:39:45.087Z,94813.75
2023-02-09T00:41:16.623Z,94805.09
2023-02-09T00:42:48.111Z,94805.09
2023-02-09T00:44:19.657Z,94796.13
2023-02-09T00:45:51.160Z,94803.38
2023-02-09T00:47:22.775Z,94798.94
2023-02-09T00:48:54.255Z,94804.03
2023-02-09T00:50:26.096Z,94800.59
2023-02-09T00:51:57.589Z,94797.09
2023-02-09T00:53:29.131Z,94794.44
2023-02-09T00:55:01.170Z,94798.47
2023-02-09T00:56:33.893Z,94795.72
2023-02-09T00:58:05.425Z,94798.03
2023-02-09T00:59:37.070Z,94789.06
2023-02-09T01:01:13.687Z,94793.81
2023-02-09T01:02:45.219Z,94792.69
2023-02-09T01:04:16.800Z,94793.16
2023-02-09T01:05:48.393Z,94799.81
2023-02-09T01:07:20.291Z,94795.03
2023-02-09T01:08:51.776Z,94797.31
2023-02-09T01:10:23.230Z,94785.66
2023-02-09T01:11:54.830Z,94780.59
2023-02-09T01:13:26.370Z,94782.69
2023-02-09T01:14:57.924Z,94780.09
2023-02-09T01:16:31.606Z,94771.97
2023-02-09T01:18:03.316Z,94785.47
2023-02-09T01:19:35.287Z,94780.69
2023-02-09T01:21:10.547Z,94765.00
2023-02-09T01:22:42.107Z,94766.81
2023-02-09T01:24:13.892Z,94767.13
2023-02-09T01:25:45.470Z,94772.78
2023-02-09T01:27:17.199Z,94772.13
2023-02-09T01:28:49.507Z,94766.22
2023-02-09T01:30:21.166Z,94776.84
2023-02-09T01:31:52.858Z,94765.19
2023-02-09T01:33:24.542Z,94763.34
2023-02-09T01:34:56.066Z,94763.25
2023-02-09T01:36:27.990Z,94770.75
2023-02-09T01:37:59.538Z,94758.03
2023-02-09T01:39:31.061Z,94755.44
2023-02-09T01:41:02.534Z,94753.81
2023-02-09T01:42:34.104Z,94756.09
2023-02-09T01:44:28.709Z,94753.00
2023-02-09T01:46:00.350Z,94747.78
2023-02-09T01:47:31.944Z,94749.84
2023-02-09T01:49:03.717Z,94747.94
2023-02-09T01:50:37.001Z,94748.22
2023-02-09T01:52:13.219Z,94745.59
2023-02-09T01:53:44.886Z,94752.31
2023-02-09T01:55:17.744Z,94749.47
2023-02-09T01:56:50.988Z,94749.84
2023-02-09T01:58:22.511Z,94747.41
2023-02-09T01:59:55.966Z,94755.66
2023-02-09T02:01:27.462Z,94749.25
2023-02-09T02:03:00.463Z,94748.59
2023-02-09T02:04:32.587Z,94743.38
2023-02-09T02:06:09.170Z,94738.97
2023-02-09T02:07:45.547Z,94738.59
2023-02-09T02:09:17.091Z,94732.19
2023-02-09T02:10:48.639Z,94740.44
2023-02-09T02:12:20.123Z,94742.72
2023-02-09T02:13:51.633Z,94734.50
2023-02-09T02:15:27.695Z,94735.31
2023-02-09T02:17:11.408Z,94741.88
2023-02-09T02:19:01.714Z,94740.91
2023-02-09T02:20:51.956Z,94749.84
2023-02-09T02:22:23.473Z,94747.63
2023-02-09T02:24:13.178Z,94735.63
2023-02-09T02:26:02.530Z,94743.81
2023-02-09T02:27:37.089Z,94729.97
2023-02-09T02:29:14.394Z,94737.94
2023-02-09T02:30:49.386Z,94733.69
2023-02-09T02:32:21.168Z,94735.78
2023-02-09T02:33:52.931Z,94733.53
2023-02-09T02:35:24.478Z,94734.63
2023-02-09T02:37:15.038Z,94736.34
2023-02-09T02:38:50.441Z,94732.78
2023-02-09T02:40:40.625Z,94725.44
2023-02-09T02:42:40.125Z,94731.34
2023-02-09T02:44:13.079Z,94728.88
2023-02-09T02:45:47.310Z,94733.53
2023-02-09T02:47:19.550Z,94730.78
2023-02-09T02:48:55.464Z,94729.13
2023-02-09T02:50:27.430Z,94730.09
2023-02-09T02:51:59.728Z,94728.59
2023-02-09T02:53:32.298Z,94733.00
2023-02-09T02:55:05.513Z,94730.03
2023-02-09T02:56:37.976Z,94727.56
2023-02-09T02:58:09.541Z,94726.72
2023-02-09T02:59:42.706Z,94721.53
2023-02-09T03:01:14.973Z,94727.84
2023-02-09T03:02:47.782Z,94726.06
2023-02-09T03:04:19.333Z,94728.19
2023-02-09T03:05:50.871Z,94731.34
2023-02-09T03:07:22.431Z,94728.06
2023-02-09T03:08:55.253Z,94724.50
2023-02-09T03:10:30.790Z,94723.09
2023-02-09T03:12:07.198Z,94727.19
2023-02-09T03:13:41.082Z,94720.63
2023-02-09T03:15:21.423Z,94719.13
2023-02-09T03:16:53.023Z,94726.13
2023-02-09T03:18:30.832Z,94719.81
2023-02-09T03:20:11.029Z,94729.13
2023-02-09T03:21:45.239Z,94726.53
2023-02-09T03:23:20.272Z,94728.03
2023-02-09T03:24:53.053Z,94727.56
2023-02-09T03:26:28.400Z,94728.81
2023-02-09T03:28:02.586Z,94724.06
2023-02-09T03:29:34.122Z,94733.00
2023-02-09T03:31:05.583Z,94733.13
2023-02-09T03:32:37.650Z,94727.69
2023-02-09T03:34:09.647Z,94725.91
2023-02-09T03:35:41.138Z,94724.63
2023-02-09T03:37:12.681Z,94723.81
2023-02-09T03:38:44.229Z,94716.44
2023-02-09T03:40:15.920Z,94725.66
2023-02-09T03:41:47.946Z,94730.88
2023-02-09T03:43:19.784Z,94731.69
2023-02-09T03:44:51.382Z,94751.22
2023-02-09T03:46:23.032Z,94746.72
2023-02-09T03:47:54.561Z,94747.84
2023-02-09T03:49:26.779Z,94744.69
2023-02-09T03:50:58.218Z,94752.81
2023-02-09T03:52:31.719Z,94742.38
2023-02-09T03:54:03.932Z,94741.00
2023-02-09T03:55:37.181Z,94735.78
2023-02-09T03:57:10.485Z,94735.09
2023-02-09T03:58:42.061Z,94737.16
2023-02-09T04:00:13.865Z,94735.53
2023-02-09T04:01:45.482Z,94738.81
2023-02-09T04:03:16.983Z,94735.38
2023-02-09T04:04:48.496Z,94737.31
2023-02-09T04:06:20.086Z,94730.16
2023-02-09T04:07:51.661Z,94726.75
2023-02-09T04:09:23.483Z,94727.56
2023-02-09T04:10:55.043Z,94737.72
2023-02-09T04:12:26.510Z,94731.22
2023-02-09T04:13:58.113Z,94724.63
2023-02-09T04:15:29.714Z,94714.72
2023-02-09T04:17:01.190Z,94718.66
2023-02-09T04:18:32.662Z,94725.09
2023-02-09T04:20:04.310Z,94721.53
2023-02-09T04:21:36.204Z,94720.56
2023-02-09T04:23:07.692Z,94725.59
2023-02-09T04:24:39.188Z,94730.03
2023-02-09T04:26:10.847Z,94723.81
2023-02-09T04:27:42.450Z,94726.59
2023-02-09T04:29:13.926Z,94717.94
2023-02-09T04:30:45.581Z,94717.78
2023-02-09T04:32:17.424Z,94720.78
2023-02-09T04:33:48.947Z,94718.31
2023-02-09T04:35:20.480Z,94707.59
2023-02-09T04:36:52.408Z,94708.84
2023-02-09T04:38:23.896Z,94704.53
2023-02-09T04:39:55.363Z,94703.75
2023-02-09T04:41:26.879Z,94697.50
2023-02-09T04:42:58.506Z,94696.28
2023-02-09T04:44:30.099Z,94693.00
2023-02-09T04:46:01.863Z,94696.44
2023-02-09T04:47:33.384Z,94688.34
2023-02-09T04:49:04.966Z,94691.63
2023-02-09T04:50:36.405Z,94696.53
2023-02-09T04:52:08.013Z,94687.31
2023-02-09T04:53:39.530Z,94684.91
2023-02-09T04:55:11.017Z,94687.22
2023-02-09T04:56:42.502Z,94682.56
2023-02-09T04:58:36.504Z,94689.28
2023-02-09T05:00:08.472Z,94687.97
2023-02-09T05:01:39.957Z,94687.31
2023-02-09T05:03:11.509Z,94688.59
2023-02-09T05:04:43.027Z,94684.19
2023-02-09T05:06:14.499Z,94690.22
2023-02-09T05:07:45.967Z,94688.94
2023-02-09T05:09:17.449Z,94683.22
2023-02-09T05:10:48.958Z,94687.38
2023-02-09T05:12:20.422Z,94687.69
2023-02-09T05:13:51.868Z,94685.53
2023-02-09T05:15:23.315Z,94685.44
2023-02-09T05:16:54.963Z,94682.31
2023-02-09T05:18:26.533Z,94682.44
2023-02-09T05:19:58.045Z,94677.50
2023-02-09T05:21:29.582Z,94683.41
2023-02-09T05:23:01.066Z,94683.25
2023-02-09T05:24:32.646Z,94686.69
2023-02-09T05:26:04.279Z,94684.22
2023-02-09T05:27:35.874Z,94684.38
2023-02-09T05:29:07.367Z,94687.38
2023-02-09T05:30:38.885Z,94682.53
2023-02-09T05:32:10.408Z,94688.81
2023-02-09T05:33:42.016Z,94677.63
2023-02-09T05:35:13.589Z,94685.03
2023-02-09T05:36:45.171Z,94686.13
2023-02-09T05:38:16.654Z,94688.34
2023-02-09T05:39:48.221Z,94690.13
2023-02-09T05:41:38.135Z,94694.09
2023-02-09T05:43:09.841Z,94687.78
2023-02-09T05:44:45.100Z,94700.66
2023-02-09T05:46:16.644Z,94695.94
2023-02-09T05:47:48.194Z,94690.97
2023-02-09T05:49:19.799Z,94690.91
2023-02-09T05:50:51.376Z,94686.38
2023-02-09T05:52:23.132Z,94682.66
2023-02-09T05:53:54.743Z,94701.19
2023-02-09T05:55:26.436Z,94685.84
2023-02-09T05:56:57.918Z,94687.91
2023-02-09T05:58:29.492Z,94692.47
2023-02-09T06:00:01.016Z,94700.13
2023-02-09T06:01:33.100Z,94694.91
2023-02-09T06:03:07.252Z,94690.63
2023-02-09T06:04:38.949Z,94690.53
2023-02-09T06:06:10.527Z,94692.91
2023-02-09T06:09:53.862Z,94690.59
2023-02-09T06:13:11.073Z,94690.09
2023-02-09T06:14:42.718Z,94697.63
2023-02-09T06:16:14.327Z,94697.31
2023-02-09T06:17:46.524Z,94688.16
2023-02-09T06:19:18.971Z,94699.72
2023-02-09T06:20:50.620Z,94688.16
2023-02-09T06:22:22.125Z,94682.00
2023-02-09T06:23:53.667Z,94688.25
2023-02-09T06:25:25.235Z,94688.75
2023-02-09T06:26:56.989Z,94685.38
2023-02-09T06:28:28.553Z,94693.25
2023-02-09T06:30:00.249Z,94695.72
2023-02-09T06:31:31.983Z,94694.91
2023-02-09T06:33:03.573Z,94683.31
2023-02-09T06:34:35.102Z,94689.88
2023-02-09T06:36:06.937Z,94686.47
2023-02-09T06:37:38.465Z,94687.16
2023-02-09T06:39:10.219Z,94691.94
2023-02-09T06:40:41.832Z,94685.41
2023-02-09T06:42:13.475Z,94682.28
2023-02-09T06:43:45.179Z,94686.41
2023-02-09T06:45:17.102Z,94674.34
2023-02-09T06:46:48.679Z,94672.91
2023-02-09T06:48:20.309Z,94680.25
2023-02-09T06:49:52.014Z,94685.66
2023-02-09T06:51:23.589Z,94684.84
2023-02-09T06:52:55.600Z,94687.59
2023-02-09T06:54:29.416Z,94683.16
2023-02-09T06:56:01.736Z,94682.50
2023-02-09T06:57:35.258Z,94685.41
2023-02-09T06:59:18.633Z,94686.03
2023-02-09T07:00:53.319Z,94689.28
2023-02-09T07:02:28.242Z,94692.50
2023-02-09T07:06:23.380Z,94683.78
2023-02-09T07:07:58.192Z,94678.97
2023-02-09T07:09:29.741Z,94688.94
2023-02-09T07:14:38.457Z,94686.66
2023-02-09T07:16:10.300Z,94682.44
2023-02-09T07:17:42.470Z,94682.81
2023-02-09T07:19:18.720Z,94676.78
2023-02-09T07:21:00.181Z,94683.16
2023-02-09T07:22:31.761Z,94680.06
2023-02-09T07:24:03.530Z,94685.44
2023-02-09T07:25:35.891Z,94680.09
2023-02-09T07:27:16.318Z,94677.94
2023-02-09T07:28:48.049Z,94682.72
2023-02-09T07:30:40.184Z,94685.06
2023-02-09T07:32:22.867Z,94685.22
2023-02-09T07:33:54.411Z,94681.22
2023-02-09T07:35:25.975Z,94679.38
2023-02-09T07:36:57.578Z,94694.88
2023-02-09T07:38:29.274Z,94678.38
2023-02-09T07:40:00.886Z,94673.44
2023-02-09T07:41:32.468Z,94674.34
2023-02-09T07:43:04.580Z,94680.44
2023-02-09T07:44:36.134Z,94684.81
2023-02-09T07:46:08.213Z,94685.28
2023-02-09T07:47:39.898Z,94686.09
2023-02-09T07:49:11.486Z,94687.50
2023-02-09T07:50:48.559Z,94690.25
2023-02-09T07:52:20.008Z,94686.97
2023-02-09T07:53:57.949Z,94684.59
2023-02-09T07:55:29.708Z,94684.81
2023-02-09T07:57:01.180Z,94686.31
2023-02-09T07:58:32.804Z,94686.97
2023-02-09T08:00:04.501Z,94684.69
2023-02-09T08:01:35.979Z,94681.69
2023-02-09T08:03:07.757Z,94682.88
2023-02-09T08:04:39.363Z,94683.69
2023-02-09T08:06:19.558Z,94680.13
2023-02-09T08:07:51.740Z,94683.44
2023-02-09T08:09:23.304Z,94679.44
2023-02-09T08:10:54.978Z,94675.63
2023-02-09T08:12:46.717Z,94674.47
2023-02-09T08:14:22.450Z,94682.72
2023-02-09T08:15:55.750Z,94675.94
2023-02-09T08:17:28.149Z,94680.31
2023-02-09T08:19:06.595Z,94682.13
2023-02-09T08:20:38.207Z,94686.38
2023-02-09T08:22:09.894Z,94687.38
2023-02-09T08:23:41.937Z,94683.22
2023-02-09T08:25:14.306Z,94688.94
2023-02-09T08:26:46.299Z,94702.16
2023-02-09T08:28:21.729Z,94691.50
2023-02-09T08:29:53.320Z,94687.38
2023-02-09T08:31:24.903Z,94693.84
2023-02-09T08:32:56.552Z,94694.16
2023-02-09T08:34:28.181Z,94698.34
2023-02-09T08:35:59.846Z,94698.19
2023-02-09T08:37:31.547Z,94696.06
2023-02-09T08:39:05.588Z,94698.19
2023-02-09T08:40:40.326Z,94691.25
2023-02-09T08:42:11.891Z,94696.47
2023-02-09T08:43:47.336Z,94696.00
2023-02-09T08:45:18.970Z,94691.00
2023-02-09T08:46:51.283Z,94700.41
2023-02-09T08:48:22.899Z,94700.84
2023-02-09T08:49:54.476Z,94697.22
2023-02-09T08:51:26.124Z,94700.94
2023-02-09T08:52:58.266Z,94696.88
2023-02-09T08:54:29.963Z,94694.28
2023-02-09T08:56:01.644Z,94694.34
2023-02-09T08:57:43.476Z,94695.16
2023-02-09T08:59:16.996Z,94698.06
2023-02-09T09:00:50.045Z,94699.09
2023-02-09T09:02:21.712Z,94694.22
2023-02-09T09:03:53.500Z,94690.56
2023-02-09T09:05:25.006Z,94697.91
2023-02-09T09:06:56.696Z,94702.13
2023-02-09T09:08:28.307Z,94695.63
2023-02-09T09:10:00.005Z,94698.47
2023-02-09T09:11:31.731Z,94697.66
2023-02-09T09:13:03.792Z,94709.63
2023-02-09T09:14:35.753Z,94713.91
2023-02-09T09:16:07.598Z,94707.75
2023-02-09T09:17:39.515Z,94712.22
2023-02-09T09:19:11.066Z,94713.69
2023-02-09T09:20:42.747Z,94714.75
2023-02-09T09:22:14.315Z,94707.88
2023-02-09T09:23:46.090Z,94700.16
2023-02-09T09:25:20.398Z,94706.06
2023-02-09T09:26:51.936Z,94711.19
2023-02-09T09:28:23.474Z,94712.81
2023-02-09T09:29:55.573Z,94708.38
2023-02-09T09:31:27.325Z,94703.91
2023-02-09T09:32:59.418Z,94702.88
2023-02-09T09:34:31.170Z,94701.47
2023-02-09T09:36:03.188Z,94695.34
2023-02-09T09:37:35.067Z,94698.78
2023-02-09T09:39:07.098Z,94696.94
2023-02-09T09:40:40.600Z,94700.00
2023-02-09T09:42:26.082Z,94698.34
2023-02-09T09:43:58.248Z,94702.19
2023-02-09T09:45:30.400Z,94695.91
2023-02-09T09:47:07.586Z,94701.63
2023-02-09T09:48:42.985Z,94697.75
2023-02-09T09:50:15.239Z,94686.13
2023-02-09T09:51:48.276Z,94693.47
2023-02-09T09:53:35.593Z,94692.41
2023-02-09T09:55:08.112Z,94687.31
2023-02-09T09:56:41.181Z,94696.47
2023-02-09T09:58:16.047Z,94689.50
2023-02-09T09:59:47.800Z,94691.13
2023-02-09T10:01:20.260Z,94688.91
2023-02-09T10:02:52.209Z,94687.47
2023-02-09T10:04:23.957Z,94689.91
2023-02-09T10:05:56.847Z,94684.63
2023-02-09T10:07:31.823Z,94690.13
2023-02-09T10:09:04.696Z,94686.25
2023-02-09T10:10:55.368Z,94682.72
2023-02-09T10:12:37.807Z,94672.31
2023-02-09T10:14:10.148Z,94672.34
2023-02-09T10:15:42.164Z,94671.75
2023-02-09T10:17:13.744Z,94664.00
2023-02-09T10:18:46.149Z,94670.13
2023-02-09T10:20:18.118Z,94661.19
2023-02-09T10:21:50.173Z,94659.72
2023-02-09T10:23:25.989Z,94658.47
2023-02-09T10:24:57.695Z,94653.94
2023-02-09T10:26:31.358Z,94652.84
2023-02-09T10:28:06.599Z,94647.09
2023-02-09T10:29:38.390Z,94648.78
2023-02-09T10:31:19.465Z,94643.41
2023-02-09T10:32:51.267Z,94638.75
2023-02-09T10:34:31.335Z,94633.94
2023-02-09T10:36:06.244Z,94634.88
2023-02-09T10:37:38.613Z,94632.75
2023-02-09T10:39:10.330Z,94631.00
2023-02-09T10:40:42.126Z,94630.88
2023-02-09T10:42:20.438Z,94625.94
2023-02-09T10:43:52.574Z,94621.47
2023-02-09T10:45:46.359Z,94624.94
2023-02-09T10:47:20.895Z,94617.97
2023-02-09T10:48:52.414Z,94621.78
2023-02-09T10:50:24.087Z,94619.88
2023-02-09T10:52:15.173Z,94617.78
2023-02-09T10:53:55.834Z,94617.88
2023-02-09T10:55:29.048Z,94625.03
2023-02-09T10:57:02.129Z,94620.03
2023-02-09T10:58:34.696Z,94615.81
2023-02-09T11:00:16.010Z,94618.31
2023-02-09T11:01:57.669Z,94618.09
2023-02-09T11:03:30.407Z,94617.19
2023-02-09T11:05:02.186Z,94611.38
2023-02-09T11:06:43.739Z,94603.41
2023-02-09T11:08:21.932Z,94602.34
2023-02-09T11:09:54.977Z,94604.50
2023-02-09T11:11:36.234Z,94602.78
2023-02-09T11:13:14.948Z,94602.13
2023-02-09T11:14:47.044Z,94602.72
2023-02-09T11:16:38.525Z,94588.72
2023-02-09T11:18:11.916Z,94594.59
2023-02-09T11:19:46.854Z,94589.63
2023-02-09T11:21:29.274Z,94583.53
2023-02-09T11:23:19.843Z,94584.22
2023-02-09T11:25:19.201Z,94582.13
2023-02-09T11:26:55.589Z,94580.28
2023-02-09T11:28:46.561Z,94575.97
2023-02-09T11:30:18.788Z,94584.66
2023-02-09T11:32:02.806Z,94570.41
2023-02-09T11:33:40.813Z,94569.13
2023-02-09T11:35:14.411Z,94569.78
2023-02-09T11:36:51.568Z,94565.91
2023-02-09T11:38:29.597Z,94561.81
2023-02-09T11:40:13.874Z,94549.53
2023-02-09T11:42:24.353Z,94549.78
2023-02-09T11:43:56.601Z,94546.50
2023-02-09T11:45:30.750Z,94561.31
2023-02-09T11:47:06.880Z,94554.22
2023-02-09T11:48:43.002Z,94552.13
2023-02-09T11:50:40.494Z,94551.16
2023-02-09T11:52:13.830Z,94547.78
2023-02-09T11:53:47.781Z,94541.38
2023-02-09T11:55:25.494Z,94537.56
2023-02-09T11:56:59.694Z,94540.59
2023-02-09T11:58:31.220Z,94538.81
2023-02-09T12:00:05.202Z,94538.81
2023-02-09T12:01:55.500Z,94540.25
2023-02-09T12:03:27.117Z,94539.50
2023-02-09T12:05:01.809Z,94535.50
2023-02-09T12:06:44.432Z,94541.50
2023-02-09T12:08:45.313Z,94533.63
2023-02-09T12:10:35.745Z,94538.81
2023-02-09T12:12:22.377Z,94548.19
2023-02-09T12:13:54.044Z,94539.59
2023-02-09T12:15:37.678Z,94538.19
2023-02-09T12:17:19.337Z,94532.19
2023-02-09T12:18:51.088Z,94537.03
2023-02-09T12:20:25.628Z,94539.94
2023-02-09T12:21:57.133Z,94540.28
2023-02-09T12:23:31.882Z,94546.56
2023-02-09T12:25:12.945Z,94536.75
2023-02-09T12:26:55.154Z,94537.28
2023-02-09T12:28:30.150Z,94541.44
2023-02-09T12:30:01.867Z,94541.06
2023-02-09T12:31:53.388Z,94537.91
2023-02-09T12:33:25.107Z,94532.19
2023-02-09T12:35:00.054Z,94527.47
2023-02-09T12:36:35.557Z,94526.03
2023-02-09T12:38:13.242Z,94524.03
2023-02-09T12:40:03.763Z,94527.56
2023-02-09T12:41:38.491Z,94525.09
2023-02-09T12:43:13.282Z,94520.69
2023-02-09T12:44:57.114Z,94518.53
2023-02-09T12:46:28.771Z,94511.16
2023-02-09T12:48:09.487Z,94508.13
2023-02-09T12:49:41.058Z,94503.28
2023-02-09T12:51:33.950Z,94501.25
2023-02-09T12:53:29.390Z,94496.78
2023-02-09T12:55:03.309Z,94505.75
2023-02-09T12:56:34.889Z,94508.25
2023-02-09T12:58:27.342Z,94505.19
2023-02-09T12:59:59.857Z,94513.00
2023-02-09T13:01:50.123Z,94504.50
2023-02-09T13:03:21.768Z,94502.88
2023-02-09T13:05:04.366Z,94502.03
2023-02-09T13:06:37.200Z,94495.09
2023-02-09T13:08:08.750Z,94499.19
2023-02-09T13:09:40.289Z,94500.00
2023-02-09T13:11:23.405Z,94502.63
2023-02-09T13:13:09.323Z,94501.50
2023-02-09T13:14:42.646Z,94500.22
2023-02-09T13:16:23.352Z,94504.69
2023-02-09T13:18:04.931Z,94502.31
2023-02-09T13:20:02.328Z,94496.28
2023-02-09T13:21:47.807Z,94499.88
2023-02-09T13:23:32.969Z,94496.47
2023-02-09T13:25:15.567Z,94502.19
2023-02-09T13:26:54.039Z,94497.16
2023-02-09T13:28:28.390Z,94501.22
2023-02-09T13:30:00.131Z,94504.25
2023-02-09T13:31:41.150Z,94504.75
2023-02-09T13:33:12.655Z,94498.84
2023-02-09T13:34:55.918Z,94493.47
2023-02-09T13:36:31.383Z,94490.63
2023-02-09T13:38:14.162Z,94490.25
2023-02-09T13:39:45.732Z,94491.56
2023-02-09T13:41:24.407Z,94497.63
2023-02-09T13:43:16.295Z,94495.25
2023-02-09T13:44:50.216Z,94498.91
2023-02-09T13:46:28.140Z,94498.44
2023-02-09T13:48:00.811Z,94495.03
2023-02-09T13:49:32.281Z,94495.34
2023-02-09T13:55:58.080Z,94475.53
2023-02-09T13:57:38.726Z,94478.03
2023-02-09T13:59:13.589Z,94483.84
2023-02-09T14:00:51.909Z,94477.50
2023-02-09T14:02:25.138Z,94485.00
2023-02-09T14:04:01.196Z,94483.00
2023-02-09T14:05:39.853Z,94485.81
2023-02-09T14:07:11.645Z,94490.72
2023-02-09T14:08:43.152Z,94487.63
2023-02-09T14:10:16.846Z,94484.31
2023-02-09T14:11:55.913Z,94484.63
2023-02-09T14:13:39.237Z,94495.09
2023-02-09T14:15:29.721Z,94494.31
2023-02-09T14:17:22.877Z,94488.28
2023-02-09T14:18:56.641Z,94489.19
2023-02-09T14:20:31.371Z,94490.09
2023-02-09T14:22:03.444Z,94490.69
2023-02-09T14:23:35.514Z,94492.09
2023-02-09T14:25:13.314Z,94493.72
2023-02-09T14:27:00.142Z,94497.97
2023-02-09T14:28:40.738Z,94499.81
2023-02-09T14:30:15.415Z,94497.81
2023-02-09T14:31:49.908Z,94497.34
2023-02-09T14:33:22.335Z,94497.66
2023-02-09T14:34:53.850Z,94505.97
2023-02-09T14:36:32.674Z,94501.44
2023-02-09T14:38:04.648Z,94505.72
2023-02-09T14:39:37.418Z,94508.59
2023-02-09T14:41:18.780Z,94509.28
2023-02-09T14:43:08.999Z,94510.78
2023-02-09T14:44:46.690Z,94515.53
2023-02-09T14:46:18.230Z,94516.34
2023-02-09T14:47:49.797Z,94515.28
2023-02-09T14:49:21.742Z,94512.88
2023-02-09T14:50:53.859Z,94509.03
2023-02-09T14:52:28.940Z,94504.75
2023-02-09T14:54:00.613Z,94516.22
2023-02-09T14:55:33.162Z,94519.31
2023-02-09T14:57:04.920Z,94511.66
2023-02-09T14:58:36.401Z,94507.47
2023-02-09T15:00:14.916Z,94504.28
2023-02-09T15:01:46.891Z,94498.78
2023-02-09T15:03:18.586Z,94504.03
2023-02-09T15:04:50.122Z,94502.63
2023-02-09T15:06:21.789Z,94514.28
2023-02-09T15:07:54.158Z,94511.03
2023-02-09T15:09:33.297Z,94509.28
2023-02-09T15:11:25.299Z,94507.50
2023-02-09T15:12:57.219Z,94506.97
2023-02-09T15:14:36.139Z,94511.13
2023-02-09T15:16:14.129Z,94516.44
2023-02-09T15:17:45.998Z,94519.91
2023-02-09T15:19:19.771Z,94522.19
2023-02-09T15:20:51.349Z,94522.53
2023-02-09T15:22:23.138Z,94516.78
2023-02-09T15:23:54.992Z,94516.88
2023-02-09T15:25:32.445Z,94513.13
2023-02-09T15:27:12.761Z,94516.91
2023-02-09T15:28:44.660Z,94512.91
2023-02-09T15:30:20.601Z,94517.25
2023-02-09T15:31:57.653Z,94515.22
2023-02-09T15:33:29.603Z,94528.31
2023-02-09T15:35:01.999Z,94524.66
2023-02-09T15:36:33.642Z,94519.91
2023-02-09T15:38:05.392Z,94513.97
2023-02-09T15:39:36.920Z,94523.59
2023-02-09T15:41:27.936Z,94515.91
2023-02-09T15:43:18.290Z,94519.84
2023-02-09T15:45:12.288Z,94523.59
2023-02-09T15:47:04.672Z,94519.38
2023-02-09T15:48:38.969Z,94519.81
2023-02-09T15:50:10.635Z,94523.72
2023-02-09T15:51:42.506Z,94513.78
2023-02-09T15:53:15.203Z,94516.66
2023-02-09T15:54:46.896Z,94522.19
2023-02-09T15:56:19.180Z,94519.19
2023-02-09T15:57:51.075Z,94524.25
2023-02-09T15:59:22.913Z,94522.47
2023-02-09T16:00:54.823Z,94524.72
2023-02-09T16:02:26.489Z,94525.53
2023-02-09T16:04:11.963Z,94527.56
2023-02-09T16:05:45.424Z,94531.06
2023-02-09T16:07:21.734Z,94524.56
2023-02-09T16:08:53.852Z,94527.22
2023-02-09T16:10:26.296Z,94531.69
2023-02-09T16:11:57.876Z,94533.94
2023-02-09T16:13:29.470Z,94537.41
2023-02-09T16:15:01.056Z,94531.69
2023-02-09T16:16:33.209Z,94528.84
2023-02-09T16:18:04.873Z,94535.16
2023-02-09T16:19:36.521Z,94533.13
2023-02-09T16:21:10.297Z,94544.31
2023-02-09T16:22:43.191Z,94539.81
2023-02-09T16:24:30.494Z,94533.91
2023-02-09T16:26:05.342Z,94540.66
2023-02-09T16:27:36.827Z,94535.34
2023-02-09T16:29:11.579Z,94541.03
2023-02-09T16:30:55.924Z,94538.97
2023-02-09T16:32:28.802Z,94541.81
2023-02-09T16:34:00.454Z,94541.81
2023-02-09T16:35:32.057Z,94545.47
2023-02-09T16:37:03.962Z,94544.88
2023-02-09T16:38:36.137Z,94546.06
2023-02-09T16:40:16.893Z,94537.75
2023-02-09T16:41:49.965Z,94542.63
2023-02-09T16:43:21.853Z,94546.25
2023-02-09T16:44:53.814Z,94545.03
2023-02-09T16:46:25.466Z,94548.91
2023-02-09T16:47:59.134Z,94546.25
2023-02-09T16:49:30.983Z,94546.03
2023-02-09T16:51:02.776Z,94546.22
2023-02-09T16:52:34.516Z,94554.53
2023-02-09T16:54:06.111Z,94551.06
2023-02-09T16:55:38.096Z,94547.84
2023-02-09T16:57:13.766Z,94548.66
2023-02-09T16:58:45.317Z,94555.78
2023-02-09T17:00:17.711Z,94549.66
2023-02-09T17:01:49.350Z,94546.41
2023-02-09T17:03:22.202Z,94550.69
2023-02-09T17:04:53.927Z,94554.16
2023-02-09T17:06:26.472Z,94555.38
2023-02-09T17:08:12.324Z,94552.56
2023-02-09T17:09:44.338Z,94551.31
2023-02-09T17:11:17.107Z,94543.16
2023-02-09T17:12:48.778Z,94543.34
2023-02-09T17:14:20.272Z,94543.94
2023-02-09T17:15:52.683Z,94548.63
2023-02-09T17:17:24.396Z,94538.88
2023-02-09T17:18:56.829Z,94546.78
2023-02-09T17:20:28.722Z,94544.53
2023-02-09T17:22:00.485Z,94542.28
2023-02-09T17:23:32.090Z,94549.38
2023-02-09T17:25:03.900Z,94546.34
2023-02-09T17:26:36.341Z,94537.81
2023-02-09T17:28:07.920Z,94550.81
2023-02-09T17:29:39.516Z,94546.72
2023-02-09T17:31:38.260Z,94551.38
2023-02-09T17:33:23.914Z,94549.75
2023-02-09T17:34:55.566Z,94557.25
2023-02-09T17:36:28.916Z,94545.47
2023-02-09T17:38:01.033Z,94550.94
2023-02-09T17:39:33.370Z,94542.41
2023-02-09T17:41:05.865Z,94539.94
2023-02-09T17:42:37.485Z,94543.19
2023-02-09T17:44:22.211Z,94533.78
2023-02-09T17:45:57.836Z,94533.56
2023-02-09T17:47:29.504Z,94541.88
2023-02-09T17:49:01.042Z,94535.38
2023-02-09T17:50:32.777Z,94522.50
2023-02-09T17:52:04.461Z,94522.88
2023-02-09T17:53:36.138Z,94521.84
2023-02-09T17:55:08.194Z,94524.28
2023-02-09T17:56:39.712Z,94524.28
2023-02-09T17:58:11.772Z,94530.75
2023-02-09T17:59:43.628Z,94526.66
2023-02-09T18:01:25.348Z,94520.75
2023-02-09T18:02:58.038Z,94522.78
2023-02-09T18:04:31.747Z,94526.22
2023-02-09T18:06:03.360Z,94519.75
2023-02-09T18:07:34.873Z,94519.56
2023-02-09T18:09:07.371Z,94522.03
2023-02-09T18:10:38.970Z,94521.84
2023-02-09T18:12:13.580Z,94526.66
2023-02-09T18:13:45.168Z,94534.56
2023-02-09T18:15:23.329Z,94532.31
2023-02-09T18:16:55.333Z,94534.13
2023-02-09T18:18:26.959Z,94527.00
2023-02-09T18:19:58.534Z,94530.22
2023-02-09T18:21:30.618Z,94532.25
2023-02-09T18:23:03.016Z,94539.34
2023-02-09T18:24:34.564Z,94539.75
2023-02-09T18:26:06.201Z,94535.28
2023-02-09T18:27:37.754Z,94530.22
2023-02-09T18:29:09.456Z,94537.13
2023-02-09T18:30:41.482Z,94536.31
2023-02-09T18:32:15.109Z,94533.03
2023-02-09T18:33:46.843Z,94528.16
2023-02-09T18:35:48.081Z,94527.16
2023-02-09T18:37:20.388Z,94530.19
2023-02-09T18:38:53.526Z,94532.81
2023-02-09T18:40:25.244Z,94526.72
2023-02-09T18:41:57.334Z,94523.72
2023-02-09T18:43:28.982Z,94533.19
2023-02-09T18:45:00.578Z,94537.41
2023-02-09T18:46:32.242Z,94526.63